sensor_id;sensor_type;location;lat;lon;timestamp;P1;durP1;ratioP1;P2;durP2;ratioP2
19923;SDS011;10124;53.068;18.224;2023-04-30T00:00:00;30.33;;;19.20;;
19923;SDS011;10124;53.068;18.224;2023-04-30T00:02:56;35.53;;;19.83;;
19923;SDS011;10124;53.068;18.224;2023-04-30T00:05:23;28.73;;;19.83;;
19923;SDS011;10124;53.068;18.224;2023-04-30T00:07:51;29.80;;;21.13;;
19923;SDS011;10124;53.068;18.224;2023-04-30T00:10:18;27.93;;;20.10;;
19923;SDS011;10124;53.068;18.224;2023-04-30T00:12:46;27.20;;;20.47;;
19923;SDS011;10124;53.068;18.224;2023-04-30T00:15:13;29.97;;;21.13;;
19923;SDS011;10124;53.068;18.224;2023-04-30T00:17:41;29.40;;;23.47;;
19923;SDS011;10124;53.068;18.224;2023-04-30T00:20:09;35.73;;;27.27;;
19923;SDS011;10124;53.068;18.224;2023-04-30T00:22:37;36.07;;;26.07;;
19923;SDS011;10124;53.068;18.224;2023-04-30T00:25:04;25.77;;;21.00;;
19923;SDS011;10124;53.068;18.224;2023-04-30T00:27:32;33.87;;;23.03;;
19923;SDS011;10124;53.068;18.224;2023-04-30T00:29:59;29.60;;;20.73;;
19923;SDS011;10124;53.068;18.224;2023-04-30T00:32:27;34.80;;;21.00;;
19923;SDS011;10124;53.068;18.224;2023-04-30T00:34:54;29.30;;;22.07;;
19923;SDS011;10124;53.068;18.224;2023-04-30T00:37:22;27.23;;;20.40;;
19923;SDS011;10124;53.068;18.224;2023-04-30T00:39:49;30.07;;;21.13;;
19923;SDS011;10124;53.068;18.224;2023-04-30T00:42:17;28.63;;;20.90;;
19923;SDS011;10124;53.068;18.224;2023-04-30T00:44:44;32.07;;;20.77;;
19923;SDS011;10124;53.068;18.224;2023-04-30T00:47:12;31.83;;;19.83;;
19923;SDS011;10124;53.068;18.224;2023-04-30T00:49:39;24.63;;;19.67;;
19923;SDS011;10124;53.068;18.224;2023-04-30T00:52:07;27.43;;;20.00;;
19923;SDS011;10124;53.068;18.224;2023-04-30T00:54:34;29.50;;;22.47;;
19923;SDS011;10124;53.068;18.224;2023-04-30T00:57:02;29.13;;;20.87;;
19923;SDS011;10124;53.068;18.224;2023-04-30T00:59:33;29.17;;;21.10;;
19923;SDS011;10124;53.068;18.224;2023-04-30T01:02:01;27.33;;;21.63;;
19923;SDS011;10124;53.068;18.224;2023-04-30T01:04:29;30.43;;;21.43;;
19923;SDS011;10124;53.068;18.224;2023-04-30T01:06:59;25.17;;;20.23;;
19923;SDS011;10124;53.068;18.224;2023-04-30T01:09:27;26.00;;;19.47;;
19923;SDS011;10124;53.068;18.224;2023-04-30T01:20:12;31.30;;;21.43;;
19923;SDS011;10124;53.068;18.224;2023-04-30T01:30:19;37.97;;;22.23;;
19923;SDS011;10124;53.068;18.224;2023-04-30T01:32:48;37.63;;;23.03;;
19923;SDS011;10124;53.068;18.224;2023-04-30T01:35:15;35.33;;;21.03;;
19923;SDS011;10124;53.068;18.224;2023-04-30T01:37:51;39.10;;;23.43;;
19923;SDS011;10124;53.068;18.224;2023-04-30T01:40:56;39.10;;;21.83;;
19923;SDS011;10124;53.068;18.224;2023-04-30T01:46:35;25.03;;;18.23;;
19923;SDS011;10124;53.068;18.224;2023-04-30T01:51:32;29.20;;;18.10;;
19923;SDS011;10124;53.068;18.224;2023-04-30T01:54:16;27.20;;;18.37;;
19923;SDS011;10124;53.068;18.224;2023-04-30T01:57:06;23.57;;;17.43;;
19923;SDS011;10124;53.068;18.224;2023-04-30T01:59:38;24.40;;;17.60;;
19923;SDS011;10124;53.068;18.224;2023-04-30T02:02:06;24.97;;;18.03;;
19923;SDS011;10124;53.068;18.224;2023-04-30T02:04:35;25.63;;;18.53;;
19923;SDS011;10124;53.068;18.224;2023-04-30T02:07:02;30.00;;;18.57;;
19923;SDS011;10124;53.068;18.224;2023-04-30T02:09:31;30.20;;;21.10;;
19923;SDS011;10124;53.068;18.224;2023-04-30T02:11:58;27.20;;;17.53;;
19923;SDS011;10124;53.068;18.224;2023-04-30T02:14:26;28.67;;;18.63;;
19923;SDS011;10124;53.068;18.224;2023-04-30T02:16:54;27.30;;;18.13;;
19923;SDS011;10124;53.068;18.224;2023-04-30T02:19:23;25.87;;;17.17;;
19923;SDS011;10124;53.068;18.224;2023-04-30T02:21:52;26.07;;;18.17;;
19923;SDS011;10124;53.068;18.224;2023-04-30T02:24:21;24.90;;;18.37;;
19923;SDS011;10124;53.068;18.224;2023-04-30T02:26:50;34.50;;;20.23;;
19923;SDS011;10124;53.068;18.224;2023-04-30T02:29:19;32.47;;;19.57;;
19923;SDS011;10124;53.068;18.224;2023-04-30T02:31:48;25.30;;;18.00;;
19923;SDS011;10124;53.068;18.224;2023-04-30T02:34:17;24.57;;;18.73;;
19923;SDS011;10124;53.068;18.224;2023-04-30T02:36:45;24.20;;;17.27;;
19923;SDS011;10124;53.068;18.224;2023-04-30T02:39:13;30.97;;;19.33;;
19923;SDS011;10124;53.068;18.224;2023-04-30T02:41:41;26.20;;;18.30;;
19923;SDS011;10124;53.068;18.224;2023-04-30T02:44:10;27.80;;;19.80;;
19923;SDS011;10124;53.068;18.224;2023-04-30T02:46:38;30.83;;;20.17;;
19923;SDS011;10124;53.068;18.224;2023-04-30T02:49:05;37.70;;;25.30;;
19923;SDS011;10124;53.068;18.224;2023-04-30T02:51:33;31.50;;;22.77;;
19923;SDS011;10124;53.068;18.224;2023-04-30T02:54:01;29.77;;;21.57;;
19923;SDS011;10124;53.068;18.224;2023-04-30T02:56:28;30.60;;;20.50;;
19923;SDS011;10124;53.068;18.224;2023-04-30T02:58:57;29.67;;;21.03;;
19923;SDS011;10124;53.068;18.224;2023-04-30T03:01:25;31.50;;;23.30;;
19923;SDS011;10124;53.068;18.224;2023-04-30T03:03:53;34.70;;;22.77;;
19923;SDS011;10124;53.068;18.224;2023-04-30T03:06:20;37.10;;;26.30;;
19923;SDS011;10124;53.068;18.224;2023-04-30T03:08:48;35.83;;;24.93;;
19923;SDS011;10124;53.068;18.224;2023-04-30T03:11:16;38.30;;;25.90;;
19923;SDS011;10124;53.068;18.224;2023-04-30T03:13:44;43.47;;;28.83;;
19923;SDS011;10124;53.068;18.224;2023-04-30T03:16:12;44.70;;;28.10;;
19923;SDS011;10124;53.068;18.224;2023-04-30T03:18:40;39.07;;;26.10;;
19923;SDS011;10124;53.068;18.224;2023-04-30T03:21:07;42.00;;;28.40;;
19923;SDS011;10124;53.068;18.224;2023-04-30T03:23:36;36.37;;;24.23;;
19923;SDS011;10124;53.068;18.224;2023-04-30T03:26:04;42.37;;;25.50;;
19923;SDS011;10124;53.068;18.224;2023-04-30T03:28:32;30.33;;;22.87;;
19923;SDS011;10124;53.068;18.224;2023-04-30T03:31:00;39.73;;;24.93;;
19923;SDS011;10124;53.068;18.224;2023-04-30T03:33:31;33.23;;;22.50;;
19923;SDS011;10124;53.068;18.224;2023-04-30T03:35:59;33.47;;;23.30;;
19923;SDS011;10124;53.068;18.224;2023-04-30T03:38:26;35.23;;;23.57;;
19923;SDS011;10124;53.068;18.224;2023-04-30T03:40:54;31.23;;;22.67;;
19923;SDS011;10124;53.068;18.224;2023-04-30T03:43:22;26.63;;;20.07;;
19923;SDS011;10124;53.068;18.224;2023-04-30T03:45:50;27.10;;;19.80;;
19923;SDS011;10124;53.068;18.224;2023-04-30T03:48:18;24.80;;;19.57;;
19923;SDS011;10124;53.068;18.224;2023-04-30T03:50:47;26.63;;;19.37;;
19923;SDS011;10124;53.068;18.224;2023-04-30T03:53:15;21.77;;;16.87;;
19923;SDS011;10124;53.068;18.224;2023-04-30T03:55:43;26.87;;;18.73;;
19923;SDS011;10124;53.068;18.224;2023-04-30T03:58:11;25.50;;;17.97;;
19923;SDS011;10124;53.068;18.224;2023-04-30T04:00:40;22.83;;;16.53;;
19923;SDS011;10124;53.068;18.224;2023-04-30T04:03:10;26.50;;;17.17;;
19923;SDS011;10124;53.068;18.224;2023-04-30T04:05:41;23.27;;;18.80;;
19923;SDS011;10124;53.068;18.224;2023-04-30T04:08:10;22.70;;;17.20;;
19923;SDS011;10124;53.068;18.224;2023-04-30T04:10:38;28.17;;;20.10;;
19923;SDS011;10124;53.068;18.224;2023-04-30T04:13:08;29.27;;;21.03;;
19923;SDS011;10124;53.068;18.224;2023-04-30T04:15:35;32.10;;;21.67;;
19923;SDS011;10124;53.068;18.224;2023-04-30T04:18:03;28.50;;;21.07;;
19923;SDS011;10124;53.068;18.224;2023-04-30T04:20:33;29.93;;;22.87;;
19923;SDS011;10124;53.068;18.224;2023-04-30T04:23:01;26.50;;;21.37;;
19923;SDS011;10124;53.068;18.224;2023-04-30T04:25:30;30.83;;;22.60;;
19923;SDS011;10124;53.068;18.224;2023-04-30T04:27:59;27.53;;;21.83;;
19923;SDS011;10124;53.068;18.224;2023-04-30T04:30:27;29.77;;;21.43;;
19923;SDS011;10124;53.068;18.224;2023-04-30T04:32:55;34.17;;;22.97;;
19923;SDS011;10124;53.068;18.224;2023-04-30T04:35:23;29.23;;;21.53;;
19923;SDS011;10124;53.068;18.224;2023-04-30T04:37:51;29.20;;;22.40;;
19923;SDS011;10124;53.068;18.224;2023-04-30T04:40:18;29.27;;;22.33;;
19923;SDS011;10124;53.068;18.224;2023-04-30T04:42:48;29.17;;;22.13;;
19923;SDS011;10124;53.068;18.224;2023-04-30T04:45:17;34.63;;;23.60;;
19923;SDS011;10124;53.068;18.224;2023-04-30T04:47:48;33.93;;;23.83;;
19923;SDS011;10124;53.068;18.224;2023-04-30T04:50:16;34.57;;;23.00;;
19923;SDS011;10124;53.068;18.224;2023-04-30T04:52:44;34.17;;;22.87;;
19923;SDS011;10124;53.068;18.224;2023-04-30T04:55:11;39.20;;;23.97;;
19923;SDS011;10124;53.068;18.224;2023-04-30T04:57:40;34.00;;;19.93;;
19923;SDS011;10124;53.068;18.224;2023-04-30T05:00:09;32.03;;;19.23;;
19923;SDS011;10124;53.068;18.224;2023-04-30T05:02:39;35.00;;;18.33;;
19923;SDS011;10124;53.068;18.224;2023-04-30T05:05:08;36.27;;;19.70;;
19923;SDS011;10124;53.068;18.224;2023-04-30T05:07:37;30.67;;;17.43;;
19923;SDS011;10124;53.068;18.224;2023-04-30T05:10:05;28.17;;;15.47;;
19923;SDS011;10124;53.068;18.224;2023-04-30T05:12:33;31.03;;;15.73;;
19923;SDS011;10124;53.068;18.224;2023-04-30T05:15:01;24.00;;;13.30;;
19923;SDS011;10124;53.068;18.224;2023-04-30T05:17:30;28.43;;;13.50;;
19923;SDS011;10124;53.068;18.224;2023-04-30T05:19:58;20.70;;;13.13;;
19923;SDS011;10124;53.068;18.224;2023-04-30T05:22:26;30.20;;;10.13;;
19923;SDS011;10124;53.068;18.224;2023-04-30T05:24:54;19.20;;;10.13;;
19923;SDS011;10124;53.068;18.224;2023-04-30T05:27:22;15.60;;;8.40;;
19923;SDS011;10124;53.068;18.224;2023-04-30T05:29:49;19.13;;;8.70;;
19923;SDS011;10124;53.068;18.224;2023-04-30T05:32:17;22.23;;;9.30;;
19923;SDS011;10124;53.068;18.224;2023-04-30T05:34:45;19.00;;;9.70;;
19923;SDS011;10124;53.068;18.224;2023-04-30T05:37:13;18.20;;;8.97;;
19923;SDS011;10124;53.068;18.224;2023-04-30T05:39:45;15.53;;;7.83;;
19923;SDS011;10124;53.068;18.224;2023-04-30T05:42:13;18.20;;;8.90;;
19923;SDS011;10124;53.068;18.224;2023-04-30T05:44:41;22.13;;;8.77;;
19923;SDS011;10124;53.068;18.224;2023-04-30T05:47:10;17.27;;;7.97;;
19923;SDS011;10124;53.068;18.224;2023-04-30T05:49:38;20.60;;;9.03;;
19923;SDS011;10124;53.068;18.224;2023-04-30T05:52:06;17.60;;;7.67;;
19923;SDS011;10124;53.068;18.224;2023-04-30T05:54:34;18.97;;;7.17;;
19923;SDS011;10124;53.068;18.224;2023-04-30T05:57:03;13.73;;;8.00;;
19923;SDS011;10124;53.068;18.224;2023-04-30T05:59:31;21.07;;;9.33;;
19923;SDS011;10124;53.068;18.224;2023-04-30T06:01:59;45.53;;;21.27;;
19923;SDS011;10124;53.068;18.224;2023-04-30T06:04:26;26.90;;;12.27;;
19923;SDS011;10124;53.068;18.224;2023-04-30T06:06:55;16.30;;;7.70;;
19923;SDS011;10124;53.068;18.224;2023-04-30T06:09:23;12.77;;;6.83;;
19923;SDS011;10124;53.068;18.224;2023-04-30T06:11:51;16.20;;;7.30;;
19923;SDS011;10124;53.068;18.224;2023-04-30T06:14:19;15.70;;;6.70;;
19923;SDS011;10124;53.068;18.224;2023-04-30T06:16:48;16.07;;;7.63;;
19923;SDS011;10124;53.068;18.224;2023-04-30T06:19:16;14.40;;;6.73;;
19923;SDS011;10124;53.068;18.224;2023-04-30T06:21:45;19.07;;;7.27;;
19923;SDS011;10124;53.068;18.224;2023-04-30T06:24:13;18.63;;;7.57;;
19923;SDS011;10124;53.068;18.224;2023-04-30T06:26:40;21.17;;;7.63;;
19923;SDS011;10124;53.068;18.224;2023-04-30T06:29:08;16.17;;;5.47;;
19923;SDS011;10124;53.068;18.224;2023-04-30T06:31:36;18.87;;;5.97;;
19923;SDS011;10124;53.068;18.224;2023-04-30T06:34:04;18.20;;;5.47;;
19923;SDS011;10124;53.068;18.224;2023-04-30T06:36:32;13.17;;;5.30;;
19923;SDS011;10124;53.068;18.224;2023-04-30T06:39:00;12.25;;;4.22;;
19923;SDS011;10124;53.068;18.224;2023-04-30T06:41:28;12.27;;;4.38;;
19923;SDS011;10124;53.068;18.224;2023-04-30T06:43:56;10.05;;;4.20;;
19923;SDS011;10124;53.068;18.224;2023-04-30T06:46:23;11.93;;;3.65;;
19923;SDS011;10124;53.068;18.224;2023-04-30T06:48:52;10.55;;;3.33;;
19923;SDS011;10124;53.068;18.224;2023-04-30T06:51:20;8.85;;;3.42;;
19923;SDS011;10124;53.068;18.224;2023-04-30T06:53:47;8.98;;;2.88;;
19923;SDS011;10124;53.068;18.224;2023-04-30T06:56:15;11.88;;;4.07;;
19923;SDS011;10124;53.068;18.224;2023-04-30T06:58:43;8.02;;;3.22;;
19923;SDS011;10124;53.068;18.224;2023-04-30T07:01:12;13.55;;;3.92;;
19923;SDS011;10124;53.068;18.224;2023-04-30T07:03:40;7.97;;;2.53;;
19923;SDS011;10124;53.068;18.224;2023-04-30T07:06:09;13.48;;;3.97;;
19923;SDS011;10124;53.068;18.224;2023-04-30T07:08:37;16.40;;;5.70;;
19923;SDS011;10124;53.068;18.224;2023-04-30T07:11:07;12.82;;;4.53;;
19923;SDS011;10124;53.068;18.224;2023-04-30T07:13:34;14.27;;;4.07;;
19923;SDS011;10124;53.068;18.224;2023-04-30T07:16:03;11.75;;;4.15;;
19923;SDS011;10124;53.068;18.224;2023-04-30T07:18:31;7.72;;;2.95;;
19923;SDS011;10124;53.068;18.224;2023-04-30T07:20:59;13.10;;;2.55;;
19923;SDS011;10124;53.068;18.224;2023-04-30T07:23:26;9.77;;;4.78;;
19923;SDS011;10124;53.068;18.224;2023-04-30T07:25:56;12.15;;;3.67;;
19923;SDS011;10124;53.068;18.224;2023-04-30T07:28:23;9.73;;;3.28;;
19923;SDS011;10124;53.068;18.224;2023-04-30T07:30:51;9.52;;;3.03;;
19923;SDS011;10124;53.068;18.224;2023-04-30T07:33:18;13.00;;;4.45;;
19923;SDS011;10124;53.068;18.224;2023-04-30T07:35:46;6.88;;;2.63;;
19923;SDS011;10124;53.068;18.224;2023-04-30T07:38:14;10.25;;;3.33;;
19923;SDS011;10124;53.068;18.224;2023-04-30T07:40:43;12.10;;;3.75;;
19923;SDS011;10124;53.068;18.224;2023-04-30T07:43:11;4.72;;;1.77;;
19923;SDS011;10124;53.068;18.224;2023-04-30T07:45:38;10.65;;;3.65;;
19923;SDS011;10124;53.068;18.224;2023-04-30T07:48:06;8.10;;;2.92;;
19923;SDS011;10124;53.068;18.224;2023-04-30T07:50:34;5.53;;;2.25;;
19923;SDS011;10124;53.068;18.224;2023-04-30T07:53:01;9.63;;;2.17;;
19923;SDS011;10124;53.068;18.224;2023-04-30T07:55:29;10.30;;;4.05;;
19923;SDS011;10124;53.068;18.224;2023-04-30T07:57:56;9.05;;;2.97;;
19923;SDS011;10124;53.068;18.224;2023-04-30T08:00:25;19.17;;;8.05;;
19923;SDS011;10124;53.068;18.224;2023-04-30T08:02:55;5.40;;;2.35;;
19923;SDS011;10124;53.068;18.224;2023-04-30T08:05:23;33.65;;;19.25;;
19923;SDS011;10124;53.068;18.224;2023-04-30T08:07:51;14.95;;;6.88;;
19923;SDS011;10124;53.068;18.224;2023-04-30T08:10:19;7.38;;;3.53;;
19923;SDS011;10124;53.068;18.224;2023-04-30T08:12:47;10.80;;;3.35;;
19923;SDS011;10124;53.068;18.224;2023-04-30T08:15:15;9.82;;;4.28;;
19923;SDS011;10124;53.068;18.224;2023-04-30T08:17:42;9.82;;;3.30;;
19923;SDS011;10124;53.068;18.224;2023-04-30T08:20:11;10.38;;;4.13;;
19923;SDS011;10124;53.068;18.224;2023-04-30T08:22:38;8.38;;;3.25;;
19923;SDS011;10124;53.068;18.224;2023-04-30T08:25:05;7.68;;;2.13;;
19923;SDS011;10124;53.068;18.224;2023-04-30T08:27:33;6.40;;;2.13;;
19923;SDS011;10124;53.068;18.224;2023-04-30T08:30:00;5.60;;;2.03;;
19923;SDS011;10124;53.068;18.224;2023-04-30T08:32:27;11.15;;;5.53;;
19923;SDS011;10124;53.068;18.224;2023-04-30T08:34:55;7.78;;;2.88;;
19923;SDS011;10124;53.068;18.224;2023-04-30T08:37:22;7.88;;;2.60;;
19923;SDS011;10124;53.068;18.224;2023-04-30T08:39:50;5.93;;;3.30;;
19923;SDS011;10124;53.068;18.224;2023-04-30T08:42:17;6.68;;;2.85;;
19923;SDS011;10124;53.068;18.224;2023-04-30T08:44:47;7.38;;;2.80;;
19923;SDS011;10124;53.068;18.224;2023-04-30T08:47:14;5.03;;;2.38;;
19923;SDS011;10124;53.068;18.224;2023-04-30T08:49:44;5.80;;;2.65;;
19923;SDS011;10124;53.068;18.224;2023-04-30T08:52:11;9.82;;;4.05;;
19923;SDS011;10124;53.068;18.224;2023-04-30T08:54:39;9.63;;;3.45;;
19923;SDS011;10124;53.068;18.224;2023-04-30T08:57:07;10.05;;;3.95;;
19923;SDS011;10124;53.068;18.224;2023-04-30T08:59:36;8.30;;;3.55;;
19923;SDS011;10124;53.068;18.224;2023-04-30T09:02:03;7.03;;;1.92;;
19923;SDS011;10124;53.068;18.224;2023-04-30T09:04:31;9.18;;;2.53;;
19923;SDS011;10124;53.068;18.224;2023-04-30T09:06:59;7.60;;;2.33;;
19923;SDS011;10124;53.068;18.224;2023-04-30T09:09:36;11.02;;;3.13;;
19923;SDS011;10124;53.068;18.224;2023-04-30T09:14:39;5.65;;;1.88;;
19923;SDS011;10124;53.068;18.224;2023-04-30T09:17:07;5.47;;;1.77;;
19923;SDS011;10124;53.068;18.224;2023-04-30T09:19:34;7.93;;;1.70;;
19923;SDS011;10124;53.068;18.224;2023-04-30T09:22:18;2.88;;;1.52;;
19923;SDS011;10124;53.068;18.224;2023-04-30T09:24:48;5.78;;;2.22;;
19923;SDS011;10124;53.068;18.224;2023-04-30T09:27:17;6.00;;;1.98;;
19923;SDS011;10124;53.068;18.224;2023-04-30T09:29:47;5.57;;;1.73;;
19923;SDS011;10124;53.068;18.224;2023-04-30T09:32:14;4.80;;;1.60;;
19923;SDS011;10124;53.068;18.224;2023-04-30T09:34:41;7.75;;;1.70;;
19923;SDS011;10124;53.068;18.224;2023-04-30T09:37:09;6.85;;;2.15;;
19923;SDS011;10124;53.068;18.224;2023-04-30T09:39:47;7.57;;;1.75;;
19923;SDS011;10124;53.068;18.224;2023-04-30T09:42:20;4.72;;;1.80;;
19923;SDS011;10124;53.068;18.224;2023-04-30T09:44:48;17.08;;;11.32;;
19923;SDS011;10124;53.068;18.224;2023-04-30T09:47:17;9.52;;;4.78;;
19923;SDS011;10124;53.068;18.224;2023-04-30T09:49:48;7.43;;;3.13;;
19923;SDS011;10124;53.068;18.224;2023-04-30T09:52:20;6.57;;;2.72;;
19923;SDS011;10124;53.068;18.224;2023-04-30T09:54:48;5.30;;;1.30;;
19923;SDS011;10124;53.068;18.224;2023-04-30T09:57:15;6.25;;;2.72;;
19923;SDS011;10124;53.068;18.224;2023-04-30T09:59:43;2.15;;;1.30;;
19923;SDS011;10124;53.068;18.224;2023-04-30T10:02:13;7.70;;;3.42;;
19923;SDS011;10124;53.068;18.224;2023-04-30T10:04:43;8.93;;;3.20;;
19923;SDS011;10124;53.068;18.224;2023-04-30T10:07:15;6.65;;;3.53;;
19923;SDS011;10124;53.068;18.224;2023-04-30T10:09:56;6.43;;;2.50;;
19923;SDS011;10124;53.068;18.224;2023-04-30T10:15:15;3.17;;;1.50;;
19923;SDS011;10124;53.068;18.224;2023-04-30T10:17:52;2.90;;;1.52;;
19923;SDS011;10124;53.068;18.224;2023-04-30T10:20:27;6.55;;;2.08;;
19923;SDS011;10124;53.068;18.224;2023-04-30T10:22:56;4.38;;;1.65;;
19923;SDS011;10124;53.068;18.224;2023-04-30T10:25:25;4.20;;;2.38;;
19923;SDS011;10124;53.068;18.224;2023-04-30T10:27:53;5.03;;;1.65;;
19923;SDS011;10124;53.068;18.224;2023-04-30T10:30:21;3.10;;;1.95;;
19923;SDS011;10124;53.068;18.224;2023-04-30T10:33:05;7.18;;;2.17;;
19923;SDS011;10124;53.068;18.224;2023-04-30T10:35:54;5.55;;;2.28;;
19923;SDS011;10124;53.068;18.224;2023-04-30T10:38:28;4.22;;;1.70;;
19923;SDS011;10124;53.068;18.224;2023-04-30T10:40:58;4.60;;;2.13;;
19923;SDS011;10124;53.068;18.224;2023-04-30T10:43:29;9.68;;;4.22;;
19923;SDS011;10124;53.068;18.224;2023-04-30T10:45:57;9.80;;;3.40;;
19923;SDS011;10124;53.068;18.224;2023-04-30T10:48:25;14.25;;;4.70;;
19923;SDS011;10124;53.068;18.224;2023-04-30T10:50:55;8.25;;;3.03;;
19923;SDS011;10124;53.068;18.224;2023-04-30T10:53:24;5.35;;;1.83;;
19923;SDS011;10124;53.068;18.224;2023-04-30T10:55:58;6.20;;;2.83;;
19923;SDS011;10124;53.068;18.224;2023-04-30T10:58:30;9.43;;;4.53;;
19923;SDS011;10124;53.068;18.224;2023-04-30T11:01:01;4.57;;;2.10;;
19923;SDS011;10124;53.068;18.224;2023-04-30T11:03:30;5.32;;;2.25;;
19923;SDS011;10124;53.068;18.224;2023-04-30T11:06:00;18.30;;;12.90;;
19923;SDS011;10124;53.068;18.224;2023-04-30T11:08:38;21.42;;;13.73;;
19923;SDS011;10124;53.068;18.224;2023-04-30T11:11:09;7.68;;;3.60;;
19923;SDS011;10124;53.068;18.224;2023-04-30T11:13:38;5.00;;;2.40;;
19923;SDS011;10124;53.068;18.224;2023-04-30T11:16:07;8.02;;;2.70;;
19923;SDS011;10124;53.068;18.224;2023-04-30T11:18:40;6.18;;;2.58;;
19923;SDS011;10124;53.068;18.224;2023-04-30T11:21:12;6.70;;;2.70;;
19923;SDS011;10124;53.068;18.224;2023-04-30T11:23:40;3.22;;;1.55;;
19923;SDS011;10124;53.068;18.224;2023-04-30T11:26:11;4.85;;;2.17;;
19923;SDS011;10124;53.068;18.224;2023-04-30T11:28:38;7.10;;;2.97;;
19923;SDS011;10124;53.068;18.224;2023-04-30T11:31:17;8.57;;;3.20;;
19923;SDS011;10124;53.068;18.224;2023-04-30T11:33:44;6.95;;;3.42;;
19923;SDS011;10124;53.068;18.224;2023-04-30T11:36:12;14.88;;;2.42;;
19923;SDS011;10124;53.068;18.224;2023-04-30T11:38:40;4.40;;;2.50;;
19923;SDS011;10124;53.068;18.224;2023-04-30T11:41:10;7.22;;;2.90;;
19923;SDS011;10124;53.068;18.224;2023-04-30T11:43:38;8.77;;;4.00;;
19923;SDS011;10124;53.068;18.224;2023-04-30T11:46:09;4.85;;;2.70;;
19923;SDS011;10124;53.068;18.224;2023-04-30T11:48:42;7.70;;;5.88;;
19923;SDS011;10124;53.068;18.224;2023-04-30T11:53:46;5.85;;;1.85;;
19923;SDS011;10124;53.068;18.224;2023-04-30T11:58:50;4.20;;;1.70;;
19923;SDS011;10124;53.068;18.224;2023-04-30T12:01:20;4.13;;;1.73;;
19923;SDS011;10124;53.068;18.224;2023-04-30T12:03:47;4.00;;;1.77;;
19923;SDS011;10124;53.068;18.224;2023-04-30T12:06:20;8.55;;;4.13;;
19923;SDS011;10124;53.068;18.224;2023-04-30T12:08:48;3.55;;;1.85;;
19923;SDS011;10124;53.068;18.224;2023-04-30T12:11:20;4.65;;;2.00;;
19923;SDS011;10124;53.068;18.224;2023-04-30T12:14:02;5.10;;;1.92;;
19923;SDS011;10124;53.068;18.224;2023-04-30T12:16:46;4.40;;;1.52;;
19923;SDS011;10124;53.068;18.224;2023-04-30T12:19:19;14.50;;;5.85;;
19923;SDS011;10124;53.068;18.224;2023-04-30T12:21:49;6.82;;;2.30;;
19923;SDS011;10124;53.068;18.224;2023-04-30T12:24:17;9.52;;;6.32;;
19923;SDS011;10124;53.068;18.224;2023-04-30T12:26:45;4.95;;;1.92;;
19923;SDS011;10124;53.068;18.224;2023-04-30T12:29:17;5.68;;;2.03;;
19923;SDS011;10124;53.068;18.224;2023-04-30T12:31:45;6.45;;;3.53;;
19923;SDS011;10124;53.068;18.224;2023-04-30T12:34:15;6.25;;;2.70;;
19923;SDS011;10124;53.068;18.224;2023-04-30T12:36:44;4.43;;;2.22;;
19923;SDS011;10124;53.068;18.224;2023-04-30T12:39:13;4.38;;;1.98;;
19923;SDS011;10124;53.068;18.224;2023-04-30T12:41:42;7.18;;;2.25;;
19923;SDS011;10124;53.068;18.224;2023-04-30T12:46:54;5.05;;;2.22;;
19923;SDS011;10124;53.068;18.224;2023-04-30T12:51:58;4.47;;;1.80;;
19923;SDS011;10124;53.068;18.224;2023-04-30T12:54:28;5.28;;;2.83;;
19923;SDS011;10124;53.068;18.224;2023-04-30T12:59:39;3.38;;;2.08;;
19923;SDS011;10124;53.068;18.224;2023-04-30T13:02:27;7.03;;;3.33;;
19923;SDS011;10124;53.068;18.224;2023-04-30T13:04:55;4.20;;;1.63;;
19923;SDS011;10124;53.068;18.224;2023-04-30T13:07:23;6.32;;;2.05;;
19923;SDS011;10124;53.068;18.224;2023-04-30T13:09:50;4.28;;;2.25;;
19923;SDS011;10124;53.068;18.224;2023-04-30T13:12:18;5.82;;;2.60;;
19923;SDS011;10124;53.068;18.224;2023-04-30T13:14:45;10.15;;;2.45;;
19923;SDS011;10124;53.068;18.224;2023-04-30T13:17:13;6.72;;;2.10;;
19923;SDS011;10124;53.068;18.224;2023-04-30T13:19:40;5.45;;;2.08;;
19923;SDS011;10124;53.068;18.224;2023-04-30T13:22:08;7.00;;;2.15;;
19923;SDS011;10124;53.068;18.224;2023-04-30T13:24:35;5.82;;;2.55;;
19923;SDS011;10124;53.068;18.224;2023-04-30T13:27:03;4.57;;;2.00;;
19923;SDS011;10124;53.068;18.224;2023-04-30T13:29:30;5.55;;;2.60;;
19923;SDS011;10124;53.068;18.224;2023-04-30T13:31:58;6.72;;;1.88;;
19923;SDS011;10124;53.068;18.224;2023-04-30T13:34:26;5.97;;;2.28;;
19923;SDS011;10124;53.068;18.224;2023-04-30T13:36:53;13.07;;;2.47;;
19923;SDS011;10124;53.068;18.224;2023-04-30T13:39:21;6.20;;;2.22;;
19923;SDS011;10124;53.068;18.224;2023-04-30T13:41:49;8.65;;;2.28;;
19923;SDS011;10124;53.068;18.224;2023-04-30T13:44:16;4.45;;;1.67;;
19923;SDS011;10124;53.068;18.224;2023-04-30T13:46:43;4.95;;;2.17;;
19923;SDS011;10124;53.068;18.224;2023-04-30T13:49:11;7.07;;;2.28;;
19923;SDS011;10124;53.068;18.224;2023-04-30T13:51:38;5.00;;;2.63;;
19923;SDS011;10124;53.068;18.224;2023-04-30T13:54:05;5.03;;;2.30;;
19923;SDS011;10124;53.068;18.224;2023-04-30T13:56:33;10.55;;;2.97;;
19923;SDS011;10124;53.068;18.224;2023-04-30T13:59:00;6.25;;;2.40;;
19923;SDS011;10124;53.068;18.224;2023-04-30T14:01:29;5.55;;;3.15;;
19923;SDS011;10124;53.068;18.224;2023-04-30T14:03:58;6.80;;;4.65;;
19923;SDS011;10124;53.068;18.224;2023-04-30T14:06:26;8.77;;;3.92;;
19923;SDS011;10124;53.068;18.224;2023-04-30T14:08:55;7.82;;;3.65;;
19923;SDS011;10124;53.068;18.224;2023-04-30T14:11:22;9.18;;;4.63;;
19923;SDS011;10124;53.068;18.224;2023-04-30T14:13:49;10.70;;;5.13;;
19923;SDS011;10124;53.068;18.224;2023-04-30T14:16:17;8.77;;;5.13;;
19923;SDS011;10124;53.068;18.224;2023-04-30T14:18:45;10.35;;;5.15;;
19923;SDS011;10124;53.068;18.224;2023-04-30T14:21:13;9.57;;;4.05;;
19923;SDS011;10124;53.068;18.224;2023-04-30T14:23:41;7.00;;;2.40;;
19923;SDS011;10124;53.068;18.224;2023-04-30T14:26:12;8.07;;;3.97;;
19923;SDS011;10124;53.068;18.224;2023-04-30T14:28:40;8.25;;;3.72;;
19923;SDS011;10124;53.068;18.224;2023-04-30T14:31:07;12.57;;;4.70;;
19923;SDS011;10124;53.068;18.224;2023-04-30T14:33:36;6.60;;;3.13;;
19923;SDS011;10124;53.068;18.224;2023-04-30T14:36:03;8.73;;;3.83;;
19923;SDS011;10124;53.068;18.224;2023-04-30T14:38:31;5.03;;;2.83;;
19923;SDS011;10124;53.068;18.224;2023-04-30T14:40:59;13.00;;;2.30;;
19923;SDS011;10124;53.068;18.224;2023-04-30T14:43:27;5.93;;;1.65;;
19923;SDS011;10124;53.068;18.224;2023-04-30T14:45:55;3.42;;;1.92;;
19923;SDS011;10124;53.068;18.224;2023-04-30T14:48:22;7.15;;;3.28;;
19923;SDS011;10124;53.068;18.224;2023-04-30T14:50:49;7.55;;;3.40;;
19923;SDS011;10124;53.068;18.224;2023-04-30T14:53:17;11.40;;;3.47;;
19923;SDS011;10124;53.068;18.224;2023-04-30T14:55:45;7.30;;;4.32;;
19923;SDS011;10124;53.068;18.224;2023-04-30T14:58:12;9.23;;;4.53;;
19923;SDS011;10124;53.068;18.224;2023-04-30T15:00:39;6.35;;;2.92;;
19923;SDS011;10124;53.068;18.224;2023-04-30T15:03:06;8.38;;;3.80;;
19923;SDS011;10124;53.068;18.224;2023-04-30T15:05:34;4.55;;;2.92;;
19923;SDS011;10124;53.068;18.224;2023-04-30T15:08:02;8.65;;;3.30;;
19923;SDS011;10124;53.068;18.224;2023-04-30T15:10:29;9.45;;;3.60;;
19923;SDS011;10124;53.068;18.224;2023-04-30T15:12:57;9.52;;;3.78;;